createdAt,value
2023-01-23T00:00:47.856Z,103713.75
2023-01-23T00:03:14.573Z,103707.78
2023-01-23T00:05:41.106Z,103712.00
2023-01-23T00:08:07.696Z,103718.81
2023-01-23T00:10:34.115Z,103716.28
2023-01-23T00:13:00.678Z,103722.28
2023-01-23T00:15:27.558Z,103720.59
2023-01-23T00:17:54.098Z,103717.22
2023-01-23T00:20:20.690Z,103713.81
2023-01-23T00:22:47.307Z,103718.88
2023-01-23T00:25:13.706Z,103718.88
2023-01-23T00:27:40.150Z,103719.66
2023-01-23T00:30:07.264Z,103721.34
2023-01-23T00:32:33.653Z,103720.44
2023-01-23T00:35:00.594Z,103714.53
2023-01-23T00:37:26.976Z,103721.34
2023-01-23T00:39:53.498Z,103713.75
2023-01-23T00:42:19.998Z,103716.19
2023-01-23T00:44:46.441Z,103717.00
2023-01-23T00:47:12.948Z,103719.59
2023-01-23T00:49:39.462Z,103719.59
2023-01-23T00:52:05.887Z,103713.66
2023-01-23T00:54:32.614Z,103702.66
2023-01-23T00:56:59.137Z,103711.22
2023-01-23T00:59:25.656Z,103710.31
2023-01-23T01:01:52.110Z,103712.78
2023-01-23T01:04:18.534Z,103715.31
2023-01-23T01:06:44.979Z,103703.41
2023-01-23T01:09:11.490Z,103692.44
2023-01-23T01:11:38.040Z,103700.94
2023-01-23T01:14:04.998Z,103699.19
2023-01-23T01:16:31.698Z,103697.44
2023-01-23T01:18:58.358Z,103692.31
2023-01-23T01:21:24.784Z,103698.22
2023-01-23T01:23:51.325Z,103698.16
2023-01-23T01:26:18.386Z,103695.63
2023-01-23T01:28:44.873Z,103698.16
2023-01-23T01:31:16.308Z,103700.69
2023-01-23T01:33:44.008Z,103705.75
2023-01-23T01:36:12.573Z,103710.81
2023-01-23T01:38:39.394Z,103712.47
2023-01-23T01:41:06.906Z,103713.25
2023-01-23T01:43:34.542Z,103715.00
2023-01-23T01:46:22.845Z,103714.22
2023-01-23T01:49:01.394Z,103713.41
2023-01-23T01:51:42.698Z,103703.22
2023-01-23T01:54:31.790Z,103699.03
2023-01-23T01:57:10.474Z,103715.09
2023-01-23T01:59:43.336Z,103715.09
2023-01-23T02:02:14.523Z,103709.16
2023-01-23T02:04:45.081Z,103716.69
2023-01-23T02:07:19.071Z,103720.06
2023-01-23T02:09:46.711Z,103720.94
2023-01-23T02:12:13.490Z,103718.47
2023-01-23T02:14:40.110Z,103715.09
2023-01-23T02:17:06.788Z,103726.97
2023-01-23T02:19:57.992Z,103723.53
2023-01-23T02:22:53.385Z,103722.69
2023-01-23T02:25:31.732Z,103726.06
2023-01-23T02:27:58.476Z,103724.44
2023-01-23T02:30:25.882Z,103727.75
2023-01-23T02:32:52.389Z,103725.22
2023-01-23T02:35:27.957Z,103721.13
2023-01-23T02:37:58.590Z,103736.31
2023-01-23T02:40:36.771Z,103731.25
2023-01-23T02:43:05.796Z,103737.16
2023-01-23T02:45:33.407Z,103732.09
2023-01-23T02:48:01.519Z,103735.50
2023-01-23T02:50:29.456Z,103743.97
2023-01-23T02:52:57.910Z,103751.56
2023-01-23T02:55:33.120Z,103749.13
2023-01-23T02:58:20.973Z,103744.06
2023-01-23T03:00:48.062Z,103749.97
2023-01-23T03:03:16.052Z,103747.53
2023-01-23T03:05:42.786Z,103751.72
2023-01-23T03:08:09.326Z,103745.00
2023-01-23T03:10:35.896Z,103749.19
2023-01-23T03:13:04.644Z,103750.06
2023-01-23T03:15:31.625Z,103747.53
2023-01-23T03:17:58.157Z,103745.78
2023-01-23T03:20:24.708Z,103748.31
2023-01-23T03:22:51.183Z,103746.66
2023-01-23T03:25:17.703Z,103747.53
2023-01-23T03:27:44.320Z,103739.91
2023-01-23T03:30:13.045Z,103744.91
2023-01-23T03:32:40.603Z,103743.25
2023-01-23T03:35:10.165Z,103744.91
2023-01-23T03:37:37.070Z,103754.25
2023-01-23T03:40:22.339Z,103743.31
2023-01-23T03:42:48.880Z,103751.72
2023-01-23T03:45:15.483Z,103747.53
2023-01-23T03:47:42.415Z,103742.44
2023-01-23T03:50:09.462Z,103742.53
2023-01-23T03:52:37.896Z,103741.66
2023-01-23T03:55:04.758Z,103750.13
2023-01-23T03:57:31.523Z,103760.25
2023-01-23T03:59:57.976Z,103753.50
2023-01-23T04:02:24.713Z,103757.72
2023-01-23T04:04:51.168Z,103751.81
2023-01-23T04:07:17.593Z,103745.06
2023-01-23T04:09:44.117Z,103751.88
2023-01-23T04:12:10.659Z,103758.69
2023-01-23T04:14:37.731Z,103750.13
2023-01-23T04:17:05.701Z,103756.06
2023-01-23T04:19:32.593Z,103754.41
2023-01-23T04:21:59.130Z,103759.53
2023-01-23T04:24:25.550Z,103757.88
2023-01-23T04:26:52.194Z,103768.91
2023-01-23T04:29:18.799Z,103768.97
2023-01-23T04:31:45.688Z,103768.91
2023-01-23T04:34:12.603Z,103767.16
2023-01-23T04:36:39.140Z,103768.97
2023-01-23T04:39:05.721Z,103768.97
2023-01-23T04:41:33.558Z,103767.28
2023-01-23T04:44:19.908Z,103768.16
2023-01-23T04:46:50.647Z,103769.81
2023-01-23T04:49:18.818Z,103761.38
2023-01-23T04:51:48.110Z,103768.16
2023-01-23T04:54:14.736Z,103766.44
2023-01-23T04:56:41.193Z,103769.81
2023-01-23T04:59:07.811Z,103768.97
2023-01-23T05:01:34.409Z,103760.47
2023-01-23T05:04:00.989Z,103770.59
2023-01-23T05:06:27.776Z,103771.50
2023-01-23T05:08:54.332Z,103773.16
2023-01-23T05:11:20.786Z,103768.97
2023-01-23T05:13:47.337Z,103770.59
2023-01-23T05:16:13.972Z,103779.09
2023-01-23T05:18:40.878Z,103773.16
2023-01-23T05:21:07.419Z,103790.09
2023-01-23T05:23:34.239Z,103790.09
2023-01-23T05:26:00.625Z,103783.34
2023-01-23T05:28:27.099Z,103785.03
2023-01-23T05:30:53.671Z,103782.50
2023-01-23T05:33:20.291Z,103788.34
2023-01-23T05:35:46.754Z,103783.34
2023-01-23T05:38:13.870Z,103784.16
2023-01-23T05:40:40.472Z,103787.56
2023-01-23T05:43:06.983Z,103792.63
2023-01-23T05:45:34.708Z,103795.16
2023-01-23T05:48:01.193Z,103793.47
2023-01-23T05:50:27.659Z,103801.88
2023-01-23T05:52:54.097Z,103786.69
2023-01-23T05:55:20.592Z,103795.16
2023-01-23T05:57:47.070Z,103785.81
2023-01-23T06:00:14.801Z,103784.88
2023-01-23T06:02:41.591Z,103793.41
2023-01-23T06:05:08.607Z,103784.94
2023-01-23T06:07:35.203Z,103791.69
2023-01-23T06:10:01.604Z,103785.72
2023-01-23T06:12:28.080Z,103786.63
2023-01-23T06:14:54.669Z,103795.00
2023-01-23T06:17:21.158Z,103788.34
2023-01-23T06:19:48.645Z,103787.47
2023-01-23T06:22:15.127Z,103782.34
2023-01-23T06:24:41.659Z,103795.06
2023-01-23T06:27:08.805Z,103798.38
2023-01-23T06:29:36.455Z,103803.44
2023-01-23T06:32:03.605Z,103811.13
2023-01-23T06:34:30.058Z,103812.81
2023-01-23T06:36:56.568Z,103813.66
2023-01-23T06:39:23.077Z,103821.34
2023-01-23T06:41:49.563Z,103822.22
2023-01-23T06:44:16.015Z,103829.00
2023-01-23T06:46:42.520Z,103828.22
2023-01-23T06:49:10.542Z,103847.72
2023-01-23T06:51:37.144Z,103845.25
2023-01-23T06:54:03.761Z,103848.56
2023-01-23T06:56:30.296Z,103840.97
2023-01-23T06:58:56.758Z,103836.78
2023-01-23T07:01:24.007Z,103839.31
2023-01-23T07:03:50.493Z,103835.91
2023-01-23T07:06:17.282Z,103831.72
2023-01-23T07:08:44.058Z,103829.09
2023-01-23T07:11:10.698Z,103828.31
2023-01-23T07:13:37.574Z,103829.97
2023-01-23T07:16:04.936Z,103829.09
2023-01-23T07:18:32.754Z,103824.03
2023-01-23T07:20:59.373Z,103829.97
2023-01-23T07:23:25.739Z,103822.38
2023-01-23T07:25:59.139Z,103824.91
2023-01-23T07:28:25.639Z,103821.50
2023-01-23T07:30:52.246Z,103830.06
2023-01-23T07:33:18.880Z,103836.06
2023-01-23T07:35:45.348Z,103836.06
2023-01-23T07:38:11.863Z,103839.47
2023-01-23T07:40:39.079Z,103837.09
2023-01-23T07:43:05.704Z,103827.75
2023-01-23T07:45:32.436Z,103838.66
2023-01-23T07:47:58.858Z,103837.03
2023-01-23T07:50:25.391Z,103845.47
2023-01-23T07:52:51.812Z,103861.53
2023-01-23T07:55:18.594Z,103870.03
2023-01-23T07:57:45.118Z,103883.41
2023-01-23T08:00:12.042Z,103871.66
2023-01-23T08:02:38.582Z,103887.06
2023-01-23T08:05:05.614Z,103892.97
2023-01-23T08:07:32.284Z,103889.66
2023-01-23T08:09:58.720Z,103884.69
2023-01-23T08:12:25.178Z,103882.22
2023-01-23T08:14:51.595Z,103885.69
2023-01-23T08:17:18.049Z,103890.06
2023-01-23T08:19:44.490Z,103889.28
2023-01-23T08:22:11.059Z,103896.94
2023-01-23T08:24:37.614Z,103892.75
2023-01-23T08:27:04.108Z,103890.34
2023-01-23T08:29:31.601Z,103892.09
2023-01-23T08:31:58.244Z,103897.25
2023-01-23T08:34:24.699Z,103899.16
2023-01-23T08:36:51.367Z,103896.69
2023-01-23T08:39:18.368Z,103898.59
2023-01-23T08:41:44.806Z,103899.53
2023-01-23T08:44:11.540Z,103894.53
2023-01-23T08:46:38.125Z,103896.44
2023-01-23T08:49:05.387Z,103900.81
2023-01-23T08:51:31.803Z,103900.06
2023-01-23T08:53:59.285Z,103904.50
2023-01-23T08:56:26.308Z,103901.25
2023-01-23T08:58:52.928Z,103909.00
2023-01-23T09:01:22.066Z,103907.34
2023-01-23T09:03:49.028Z,103914.25
2023-01-23T09:06:17.642Z,103922.88
2023-01-23T09:08:44.847Z,103934.09
2023-01-23T09:11:12.968Z,103930.00
2023-01-23T09:13:39.974Z,103926.88
2023-01-23T09:16:08.434Z,103926.16
2023-01-23T09:18:35.383Z,103926.38
2023-01-23T09:21:10.292Z,103931.72
2023-01-23T09:23:37.108Z,103934.41
2023-01-23T09:26:05.526Z,103935.31
2023-01-23T09:28:32.406Z,103929.41
2023-01-23T09:31:03.898Z,103926.16
2023-01-23T09:33:30.507Z,103922.94
2023-01-23T09:35:57.736Z,103921.44
2023-01-23T09:38:24.394Z,103925.88
2023-01-23T09:40:53.403Z,103937.16
2023-01-23T09:43:31.945Z,103933.19
2023-01-23T09:46:21.568Z,103929.25
2023-01-23T09:48:54.108Z,103938.56
2023-01-23T09:51:50.665Z,103937.84
2023-01-23T09:54:34.392Z,103934.72
2023-01-23T09:57:04.401Z,103945.09
2023-01-23T09:59:50.193Z,103940.16
2023-01-23T10:02:25.058Z,103936.97
2023-01-23T10:04:53.897Z,103946.47
2023-01-23T10:07:38.536Z,103952.47
2023-01-23T10:10:29.702Z,103951.69
2023-01-23T10:13:11.839Z,103949.38
2023-01-23T10:16:16.067Z,103945.94
2023-01-23T10:18:57.257Z,103944.50
2023-01-23T10:21:26.651Z,103929.41
2023-01-23T10:23:59.023Z,103937.00
2023-01-23T10:26:31.652Z,103936.50
2023-01-23T10:29:03.979Z,103930.91
2023-01-23T10:31:38.494Z,103933.00
2023-01-23T10:34:42.806Z,103930.78
2023-01-23T10:37:36.901Z,103924.97
2023-01-23T10:40:11.169Z,103914.88
2023-01-23T10:42:37.622Z,103908.88
2023-01-23T10:45:05.345Z,103923.97
2023-01-23T10:47:55.167Z,103924.06
2023-01-23T10:50:40.693Z,103925.78
2023-01-23T10:53:16.896Z,103933.31
2023-01-23T10:55:46.416Z,103930.84
2023-01-23T10:58:42.679Z,103940.09
2023-01-23T11:01:31.417Z,103934.94
2023-01-23T11:04:10.076Z,103928.38
2023-01-23T11:06:37.088Z,103926.84
2023-01-23T11:09:04.673Z,103924.31
2023-01-23T11:11:33.211Z,103931.88
2023-01-23T11:14:11.149Z,103932.72
2023-01-23T11:16:38.531Z,103936.88
2023-01-23T11:19:04.836Z,103945.44
2023-01-23T11:21:37.633Z,103939.50
2023-01-23T11:24:24.942Z,103930.06
2023-01-23T11:27:15.814Z,103929.06
2023-01-23T11:29:48.301Z,103932.66
2023-01-23T11:32:17.323Z,103927.78
2023-01-23T11:34:49.862Z,103929.84
2023-01-23T11:37:25.508Z,103932.66
2023-01-23T11:40:02.713Z,103936.09
2023-01-23T11:42:29.217Z,103937.84
2023-01-23T11:44:59.798Z,103935.38
2023-01-23T11:47:38.396Z,103938.91
2023-01-23T11:50:32.712Z,103941.50
2023-01-23T11:53:18.807Z,103934.06
2023-01-23T11:55:57.363Z,103936.00
2023-01-23T11:58:49.473Z,103926.88
2023-01-23T12:01:32.808Z,103926.94
2023-01-23T12:04:14.118Z,103925.56
2023-01-23T12:06:58.000Z,103920.81
2023-01-23T12:09:47.637Z,103926.28
2023-01-23T12:12:26.395Z,103921.19
2023-01-23T12:14:52.745Z,103920.53
2023-01-23T12:18:08.995Z,103917.31
2023-01-23T12:20:57.079Z,103923.91
2023-01-23T12:24:18.950Z,103916.16
2023-01-23T12:27:00.080Z,103916.28
2023-01-23T12:29:46.200Z,103912.88
2023-01-23T12:32:26.137Z,103925.84
2023-01-23T12:34:55.697Z,103923.63
2023-01-23T12:37:47.138Z,103916.31
2023-01-23T12:40:23.029Z,103916.56
2023-01-23T12:43:13.211Z,103914.25
2023-01-23T12:45:49.066Z,103916.00
2023-01-23T12:48:22.296Z,103915.59
2023-01-23T12:50:53.452Z,103915.38
2023-01-23T12:53:25.116Z,103924.81
2023-01-23T12:56:10.442Z,103922.44
2023-01-23T12:58:44.612Z,103923.31
2023-01-23T13:01:24.220Z,103923.56
2023-01-23T13:04:18.189Z,103924.50
2023-01-23T13:06:57.401Z,103928.84
2023-01-23T13:09:40.783Z,103922.00
2023-01-23T13:12:22.604Z,103921.94
2023-01-23T13:15:12.742Z,103922.00
2023-01-23T13:17:48.713Z,103923.81
2023-01-23T13:20:52.630Z,103926.28
2023-01-23T13:23:25.275Z,103927.91
2023-01-23T13:26:25.094Z,103932.13
2023-01-23T13:28:57.342Z,103928.78
2023-01-23T13:31:42.574Z,103929.47
2023-01-23T13:34:18.249Z,103928.38
2023-01-23T13:36:49.611Z,103937.78
2023-01-23T13:39:22.963Z,103931.81
2023-01-23T13:42:12.274Z,103939.34
2023-01-23T13:45:14.571Z,103942.81
2023-01-23T14:22:31.669Z,103876.47
2023-01-23T14:24:59.061Z,103867.09
2023-01-23T14:27:36.772Z,103867.84
2023-01-23T14:30:19.019Z,103875.47
2023-01-23T14:32:46.300Z,103873.78
2023-01-23T14:35:17.756Z,103867.72
2023-01-23T14:37:45.341Z,103866.69
2023-01-23T14:40:27.145Z,103865.72
2023-01-23T14:43:04.692Z,103863.06
2023-01-23T14:45:33.553Z,103869.69
2023-01-23T14:48:06.024Z,103872.28
2023-01-23T14:50:32.910Z,103871.34
2023-01-23T14:53:11.851Z,103886.63
2023-01-23T14:55:41.539Z,103884.00
2023-01-23T14:58:15.895Z,103886.56
2023-01-23T15:00:43.043Z,103885.63
2023-01-23T15:03:13.007Z,103886.50
2023-01-23T15:05:41.022Z,103883.03
2023-01-23T15:08:32.483Z,103883.81
2023-01-23T15:11:04.739Z,103883.81
2023-01-23T15:13:40.419Z,103885.34
2023-01-23T15:16:16.235Z,103882.81
2023-01-23T15:18:51.663Z,103892.06
2023-01-23T15:21:27.009Z,103891.13
2023-01-23T15:24:27.332Z,103902.03
2023-01-23T15:26:59.525Z,103905.31
2023-01-23T15:29:27.277Z,103909.53
2023-01-23T15:31:57.893Z,103921.28
2023-01-23T15:34:33.924Z,103912.03
2023-01-23T15:37:18.805Z,103913.66
2023-01-23T15:39:53.331Z,103902.66
2023-01-23T15:42:19.734Z,103902.38
2023-01-23T15:44:46.199Z,103899.78
2023-01-23T15:47:12.663Z,103906.53
2023-01-23T15:49:40.334Z,103903.91
2023-01-23T15:52:27.215Z,103904.81
2023-01-23T15:54:56.876Z,103903.78
2023-01-23T15:57:23.421Z,103901.25
2023-01-23T15:59:49.877Z,103906.25
2023-01-23T16:02:30.543Z,103909.53
2023-01-23T16:04:58.144Z,103900.97
2023-01-23T16:07:31.845Z,103903.41
2023-01-23T16:09:58.382Z,103897.22
2023-01-23T16:12:28.198Z,103902.19
2023-01-23T16:14:55.272Z,103895.97
2023-01-23T16:17:21.887Z,103904.97
2023-01-23T16:19:48.738Z,103902.09
2023-01-23T16:22:24.436Z,103902.56
2023-01-23T16:24:50.972Z,103908.88
2023-01-23T16:27:19.811Z,103909.38
2023-01-23T16:29:49.458Z,103903.97
2023-01-23T16:32:16.200Z,103908.66
2023-01-23T16:34:42.690Z,103922.91
2023-01-23T16:37:15.323Z,103920.22
2023-01-23T16:39:43.039Z,103926.94
2023-01-23T16:42:22.715Z,103927.13
2023-01-23T16:44:49.977Z,103932.34
2023-01-23T16:47:16.752Z,103930.78
2023-01-23T16:49:52.173Z,103939.31
2023-01-23T16:52:20.470Z,103944.53
2023-01-23T16:54:47.142Z,103946.22
2023-01-23T16:57:19.557Z,103943.78
2023-01-23T16:59:46.513Z,103942.97
2023-01-23T17:02:29.184Z,103943.03
2023-01-23T17:04:55.723Z,103949.88
2023-01-23T17:07:22.190Z,103948.25
2023-01-23T17:09:49.278Z,103941.63
2023-01-23T17:12:22.096Z,103945.78
2023-01-23T17:14:49.535Z,103941.63
2023-01-23T17:17:23.563Z,103953.41
2023-01-23T17:19:50.020Z,103942.47
2023-01-23T17:22:22.912Z,103945.00
2023-01-23T17:24:49.439Z,103954.38
2023-01-23T17:27:16.055Z,103951.00
2023-01-23T17:29:42.463Z,103946.81
2023-01-23T17:32:25.551Z,103947.63
2023-01-23T17:34:52.141Z,103946.75
2023-01-23T17:37:23.560Z,103952.63
2023-01-23T17:39:50.660Z,103952.63
2023-01-23T17:42:17.195Z,103960.25
2023-01-23T17:44:43.669Z,103957.69
2023-01-23T17:47:12.217Z,103967.00
2023-01-23T17:49:39.015Z,103970.47
2023-01-23T17:52:06.421Z,103965.31
2023-01-23T17:54:33.209Z,103968.72
2023-01-23T17:56:59.931Z,103972.09
2023-01-23T17:59:26.734Z,103978.88
2023-01-23T18:01:53.475Z,103968.66
2023-01-23T18:04:22.150Z,103974.53
2023-01-23T18:06:49.226Z,103972.94
2023-01-23T18:09:16.503Z,103978.00
2023-01-23T18:11:51.980Z,103979.78
2023-01-23T18:14:38.225Z,103983.94
2023-01-23T18:17:15.254Z,103981.34
2023-01-23T18:19:41.937Z,103980.41
2023-01-23T18:22:11.949Z,103979.56
2023-01-23T18:24:38.794Z,103983.81
2023-01-23T18:27:23.891Z,103973.66
2023-01-23T18:29:50.238Z,103983.81
2023-01-23T18:32:33.688Z,103980.50
2023-01-23T18:35:33.268Z,103987.97
2023-01-23T18:38:13.238Z,103984.56
2023-01-23T18:40:48.059Z,103982.88
2023-01-23T18:43:38.386Z,103987.16
2023-01-23T18:46:09.929Z,103987.97
2023-01-23T18:48:36.660Z,103986.28
2023-01-23T18:51:29.472Z,103993.03
2023-01-23T18:54:13.878Z,103985.41
2023-01-23T18:56:47.590Z,103981.13
2023-01-23T18:59:49.436Z,103975.19
2023-01-23T19:02:45.067Z,103987.16
2023-01-23T19:05:11.446Z,103987.09
2023-01-23T19:07:38.288Z,103991.34
2023-01-23T19:10:06.556Z,103987.88
2023-01-23T19:12:44.908Z,103998.91
2023-01-23T19:15:29.486Z,103990.34
2023-01-23T19:18:26.142Z,103988.69
2023-01-23T19:21:25.242Z,103985.28
2023-01-23T19:24:02.402Z,103990.28
2023-01-23T19:26:30.906Z,103991.06
2023-01-23T19:28:59.753Z,103984.25
2023-01-23T19:31:29.088Z,103981.78
2023-01-23T19:33:56.188Z,103986.94
2023-01-23T19:36:23.628Z,103989.53
2023-01-23T19:38:50.391Z,103994.53
2023-01-23T19:41:23.848Z,104000.44
2023-01-23T19:43:52.528Z,103995.38
2023-01-23T19:46:20.389Z,103993.63
2023-01-23T19:48:47.175Z,104001.31
2023-01-23T19:51:17.288Z,103998.69
2023-01-23T19:53:44.623Z,103999.53
2023-01-23T19:56:16.418Z,104003.84
2023-01-23T19:58:42.917Z,104006.38
2023-01-23T20:01:38.652Z,104011.38
2023-01-23T20:04:12.036Z,104013.13
2023-01-23T20:06:40.516Z,104013.91
2023-01-23T20:09:08.251Z,104014.78
2023-01-23T20:11:36.145Z,104017.31
2023-01-23T20:14:03.097Z,104021.53
2023-01-23T20:16:29.579Z,104022.31
2023-01-23T20:18:56.013Z,104016.38
2023-01-23T20:21:24.257Z,104019.72
2023-01-23T20:23:51.513Z,104027.34
2023-01-23T20:26:20.780Z,104022.25
2023-01-23T20:28:49.158Z,104018.06
2023-01-23T20:31:16.575Z,104024.00
2023-01-23T20:33:43.119Z,104024.00
2023-01-23T20:36:11.014Z,104027.34
2023-01-23T20:38:38.806Z,104026.47
2023-01-23T20:41:07.755Z,104022.25
2023-01-23T20:43:34.959Z,104027.34
2023-01-23T20:46:01.662Z,104025.59
2023-01-23T20:48:28.107Z,104026.53
2023-01-23T20:50:57.703Z,104029.88
2023-01-23T20:53:30.158Z,104031.53
2023-01-23T20:55:59.540Z,104017.88
2023-01-23T20:58:45.530Z,104021.31
2023-01-23T21:01:13.090Z,104025.59
2023-01-23T21:03:41.188Z,104025.59
2023-01-23T21:06:09.330Z,104025.59
2023-01-23T21:08:36.190Z,104027.25
2023-01-23T21:11:09.976Z,104025.69
2023-01-23T21:13:37.181Z,104024.72
2023-01-23T21:16:07.564Z,104016.25
2023-01-23T21:18:41.198Z,104025.50
2023-01-23T21:21:08.568Z,104021.31
2023-01-23T21:23:36.184Z,104028.03
2023-01-23T21:26:03.864Z,104035.66
2023-01-23T21:28:32.495Z,104026.31
2023-01-23T21:30:59.272Z,104033.94
2023-01-23T21:33:25.891Z,104033.94
2023-01-23T21:35:54.032Z,104031.47
2023-01-23T21:38:21.018Z,104029.72
2023-01-23T21:40:47.431Z,104028.94
2023-01-23T21:43:13.868Z,104018.63
2023-01-23T21:45:41.997Z,104026.31
2023-01-23T21:48:08.489Z,104019.50
2023-01-23T21:50:35.020Z,104025.34
2023-01-23T21:53:01.460Z,104019.44
2023-01-23T21:55:27.965Z,104022.91
2023-01-23T21:57:54.387Z,104019.44
2023-01-23T22:00:39.520Z,104030.44
2023-01-23T22:03:06.027Z,104028.78
2023-01-23T22:05:35.592Z,104029.56
2023-01-23T22:08:03.675Z,104032.13
2023-01-23T22:10:31.551Z,104043.06
2023-01-23T22:12:58.068Z,104043.13
2023-01-23T22:15:24.642Z,104038.78
2023-01-23T22:17:51.064Z,104038.78
2023-01-23T22:20:18.470Z,104048.94
2023-01-23T22:22:44.998Z,104036.19
2023-01-23T22:25:11.418Z,104039.66
2023-01-23T22:27:37.832Z,104037.13
2023-01-23T22:30:04.919Z,104047.28
2023-01-23T22:32:33.764Z,104041.34
2023-01-23T22:35:00.161Z,104051.50
2023-01-23T22:37:26.578Z,104051.50
2023-01-23T22:39:53.076Z,104041.25
2023-01-23T22:42:20.964Z,104048.06
2023-01-23T22:44:47.510Z,104053.97
2023-01-23T22:47:14.137Z,104045.44
2023-01-23T22:49:40.582Z,104047.13
2023-01-23T22:52:08.550Z,104054.81
2023-01-23T22:54:35.739Z,104047.97
2023-01-23T22:57:02.168Z,104045.44
2023-01-23T22:59:28.595Z,104047.19
2023-01-23T23:01:55.007Z,104049.75
2023-01-23T23:04:22.337Z,104038.63
2023-01-23T23:06:48.722Z,104036.06
2023-01-23T23:09:15.148Z,104045.38
2023-01-23T23:11:41.960Z,104035.28
2023-01-23T23:14:10.416Z,104043.69
2023-01-23T23:16:36.986Z,104037.69
2023-01-23T23:19:04.586Z,104041.09
2023-01-23T23:21:34.229Z,104041.91
2023-01-23T23:24:01.165Z,104047.06
2023-01-23T23:26:30.548Z,104041.16
2023-01-23T23:28:58.387Z,104041.97
2023-01-23T23:31:25.063Z,104049.59
2023-01-23T23:33:51.597Z,104041.97
2023-01-23T23:36:18.571Z,104043.63
2023-01-23T23:38:44.979Z,104040.22
2023-01-23T23:41:13.715Z,104048.69
2023-01-23T23:43:40.374Z,104043.53
2023-01-23T23:46:08.568Z,104050.31
2023-01-23T23:48:36.726Z,104050.22
2023-01-23T23:51:06.532Z,104046.00
2023-01-23T23:53:34.170Z,104039.94
2023-01-23T23:56:00.790Z,104045.16
2023-01-23T23:58:27.488Z,104034.94
